BEL2736 LSZH-EBBR
Flight info
| Callsign | BEL2736 |
|---|---|
| Flight time | 1h 2m |
| Altitude | 30000 |
| Route | VEBIT T10 TORPA DCT EDOPI DCT GIVOR DCT SORAL DCT IBERA DCT DIK Y37 BATTY |
| Aircraft | A319/M-SDE3FGHIRWY/LB1 |
Departure
| Time | 2026-05-04 17:43 |
|---|---|
| Airport | Zürich Airport (LSZH) |
Arrival
| Time | 2026-05-04 18:45 |
|---|---|
| Airport | Brussels Airport (EBBR) |
| Time | Latitude | Longitude | Altitude | Speed | Heading |
|---|---|---|---|---|---|
| 2026-05-04 17:21 | 47.45431 | 8.55747 | 1407 ft | 0 kts | 185° |
| 2026-05-04 17:35 | 47.45461 | 8.55749 | 1415 ft | 4 kts | 175° |
| 2026-05-04 17:35 | 47.45508 | 8.55721 | 1411 ft | 4 kts | 115° |
| 2026-05-04 17:35 | 47.45511 | 8.55708 | 1407 ft | 0 kts | 95° |
| 2026-05-04 17:37 | 47.45511 | 8.55716 | 1410 ft | 3 kts | 95° |
| 2026-05-04 17:37 | 47.45508 | 8.55753 | 1407 ft | 4 kts | 96° |
| 2026-05-04 17:37 | 47.45517 | 8.55813 | 1412 ft | 7 kts | 56° |
| 2026-05-04 17:38 | 47.45567 | 8.55842 | 1413 ft | 8 kts | 8° |
| 2026-05-04 17:38 | 47.45620 | 8.55864 | 1413 ft | 8 kts | 31° |
| 2026-05-04 17:38 | 47.45637 | 8.55936 | 1410 ft | 8 kts | 92° |
| 2026-05-04 17:38 | 47.45631 | 8.56016 | 1410 ft | 8 kts | 98° |
| 2026-05-04 17:39 | 47.45610 | 8.56258 | 1413 ft | 15 kts | 96° |
| 2026-05-04 17:39 | 47.45599 | 8.56411 | 1414 ft | 15 kts | 96° |
| 2026-05-04 17:39 | 47.45588 | 8.56564 | 1420 ft | 14 kts | 96° |
| 2026-05-04 17:40 | 47.45578 | 8.56706 | 1420 ft | 13 kts | 96° |
| 2026-05-04 17:40 | 47.45569 | 8.56839 | 1420 ft | 13 kts | 96° |
| 2026-05-04 17:40 | 47.45564 | 8.56941 | 1421 ft | 9 kts | 86° |
| 2026-05-04 17:40 | 47.45578 | 8.56993 | 1422 ft | 0 kts | 54° |
| 2026-05-04 17:41 | 47.45581 | 8.56997 | 1422 ft | 2 kts | 51° |
| 2026-05-04 17:42 | 47.45617 | 8.57014 | 1425 ft | 7 kts | 1° |
| 2026-05-04 17:42 | 47.45662 | 8.56963 | 1424 ft | 12 kts | 294° |
| 2026-05-04 17:42 | 47.45671 | 8.56886 | 1423 ft | 2 kts | 276° |
| 2026-05-04 17:42 | 47.45686 | 8.56683 | 1418 ft | 58 kts | 276° |
| 2026-05-04 17:43 | 47.45754 | 8.55685 | 1406 ft | 134 kts | 276° |
| 2026-05-04 17:43 | 47.45891 | 8.54130 | 1652 ft | 166 kts | 278° |
| 2026-05-04 17:43 | 47.46028 | 8.52422 | 2382 ft | 166 kts | 276° |
| 2026-05-04 17:43 | 47.46142 | 8.50743 | 3172 ft | 164 kts | 276° |
| 2026-05-04 17:44 | 47.46256 | 8.48986 | 3668 ft | 182 kts | 275° |
| 2026-05-04 17:44 | 47.45988 | 8.47054 | 3998 ft | 209 kts | 236° |
| 2026-05-04 17:44 | 47.44847 | 8.45597 | 4557 ft | 226 kts | 212° |
| 2026-05-04 17:44 | 47.43610 | 8.44124 | 5426 ft | 232 kts | 227° |
| 2026-05-04 17:45 | 47.42608 | 8.42205 | 6209 ft | 245 kts | 233° |
| 2026-05-04 17:45 | 47.41562 | 8.40062 | 6754 ft | 269 kts | 233° |
| 2026-05-04 17:45 | 47.40455 | 8.37757 | 7576 ft | 280 kts | 234° |
| 2026-05-04 17:45 | 47.39324 | 8.35386 | 8547 ft | 285 kts | 234° |
| 2026-05-04 17:46 | 47.38322 | 8.32836 | 9513 ft | 290 kts | 242° |
| 2026-05-04 17:46 | 47.37385 | 8.30176 | 10411 ft | 298 kts | 241° |
| 2026-05-04 17:46 | 47.36387 | 8.27362 | 10877 ft | 319 kts | 240° |
| 2026-05-04 17:46 | 47.35344 | 8.24430 | 11709 ft | 325 kts | 240° |
| 2026-05-04 17:47 | 47.34290 | 8.21470 | 12653 ft | 327 kts | 239° |
| 2026-05-04 17:47 | 47.33232 | 8.18498 | 13585 ft | 329 kts | 239° |
| 2026-05-04 17:47 | 47.32162 | 8.15500 | 14424 ft | 332 kts | 240° |
| 2026-05-04 17:47 | 47.31086 | 8.12481 | 15244 ft | 335 kts | 240° |
| 2026-05-04 17:48 | 47.29996 | 8.09416 | 16026 ft | 339 kts | 240° |
| 2026-05-04 17:48 | 47.28901 | 8.06329 | 16790 ft | 342 kts | 240° |
| 2026-05-04 17:48 | 47.27896 | 8.03127 | 17520 ft | 348 kts | 249° |
| 2026-05-04 17:48 | 47.27343 | 7.99691 | 18224 ft | 354 kts | 261° |
| 2026-05-04 17:49 | 47.27303 | 7.96041 | 18926 ft | 360 kts | 273° |
| 2026-05-04 17:49 | 47.27647 | 7.92356 | 19631 ft | 364 kts | 275° |
| 2026-05-04 17:49 | 47.28010 | 7.88644 | 20327 ft | 367 kts | 275° |
| 2026-05-04 17:49 | 47.28373 | 7.84906 | 20996 ft | 371 kts | 275° |
| 2026-05-04 17:50 | 47.28734 | 7.81130 | 21649 ft | 374 kts | 275° |
| 2026-05-04 17:50 | 47.29094 | 7.77321 | 22278 ft | 377 kts | 275° |
| 2026-05-04 17:50 | 47.29456 | 7.73477 | 22885 ft | 380 kts | 275° |
| 2026-05-04 17:50 | 47.29820 | 7.69601 | 23496 ft | 384 kts | 274° |
| 2026-05-04 17:51 | 47.30185 | 7.65689 | 24079 ft | 386 kts | 275° |
| 2026-05-04 17:51 | 47.30699 | 7.61781 | 24619 ft | 393 kts | 283° |
| 2026-05-04 17:51 | 47.31536 | 7.57921 | 25151 ft | 397 kts | 284° |
| 2026-05-04 17:51 | 47.32390 | 7.54040 | 25668 ft | 400 kts | 284° |
| 2026-05-04 17:52 | 47.33246 | 7.50128 | 26156 ft | 403 kts | 284° |
| 2026-05-04 17:52 | 47.34102 | 7.46189 | 26641 ft | 405 kts | 284° |
| 2026-05-04 17:52 | 47.34961 | 7.42213 | 27101 ft | 408 kts | 284° |
| 2026-05-04 17:52 | 47.35823 | 7.38211 | 27556 ft | 411 kts | 284° |
| 2026-05-04 17:53 | 47.36692 | 7.34180 | 28020 ft | 413 kts | 284° |
| 2026-05-04 17:53 | 47.37566 | 7.30125 | 28462 ft | 417 kts | 284° |
| 2026-05-04 17:53 | 47.38444 | 7.26041 | 28908 ft | 419 kts | 283° |
| 2026-05-04 17:53 | 47.39326 | 7.21932 | 29331 ft | 421 kts | 283° |
| 2026-05-04 17:54 | 47.40213 | 7.17797 | 29736 ft | 424 kts | 283° |
| 2026-05-04 17:54 | 47.41002 | 7.13608 | 29971 ft | 423 kts | 278° |
| 2026-05-04 17:54 | 47.41627 | 7.09419 | 30017 ft | 409 kts | 278° |
| 2026-05-04 17:54 | 47.42227 | 7.05400 | 30007 ft | 395 kts | 278° |
| 2026-05-04 17:55 | 47.43368 | 6.97619 | 30003 ft | 388 kts | 277° |
| 2026-05-04 17:55 | 47.44485 | 6.89840 | 30015 ft | 387 kts | 277° |
| 2026-05-04 17:56 | 47.45609 | 6.82075 | 29998 ft | 386 kts | 277° |
| 2026-05-04 17:56 | 47.46857 | 6.74346 | 29999 ft | 391 kts | 286° |
| 2026-05-04 17:57 | 47.48142 | 6.70770 | 29998 ft | 399 kts | 301° |
| 2026-05-04 17:57 | 47.50053 | 6.67750 | 29995 ft | 408 kts | 316° |
| 2026-05-04 17:57 | 47.52497 | 6.65551 | 29992 ft | 417 kts | 333° |
| 2026-05-04 17:57 | 47.55306 | 6.64384 | 29986 ft | 424 kts | 348° |
| 2026-05-04 17:58 | 47.61169 | 6.63214 | 29979 ft | 425 kts | 349° |
| 2026-05-04 17:58 | 47.67039 | 6.62049 | 29977 ft | 426 kts | 349° |
| 2026-05-04 17:59 | 47.72917 | 6.60862 | 29976 ft | 426 kts | 348° |
| 2026-05-04 18:00 | 47.81705 | 6.59079 | 29968 ft | 427 kts | 349° |
| 2026-05-04 18:00 | 47.87599 | 6.57889 | 29962 ft | 427 kts | 350° |
| 2026-05-04 18:01 | 47.93493 | 6.56694 | 29972 ft | 427 kts | 348° |
| 2026-05-04 18:01 | 47.99347 | 6.55338 | 29970 ft | 426 kts | 347° |
| 2026-05-04 18:02 | 48.08122 | 6.53151 | 29975 ft | 427 kts | 346° |
| 2026-05-04 18:02 | 48.13991 | 6.51728 | 29977 ft | 427 kts | 347° |
| 2026-05-04 18:03 | 48.19868 | 6.50323 | 29978 ft | 428 kts | 347° |
| 2026-05-04 18:03 | 48.25742 | 6.48915 | 29979 ft | 427 kts | 347° |
| 2026-05-04 18:04 | 48.31614 | 6.47499 | 29981 ft | 427 kts | 347° |
| 2026-05-04 18:05 | 48.40416 | 6.45363 | 29983 ft | 427 kts | 347° |
| 2026-05-04 18:05 | 48.46247 | 6.43931 | 29983 ft | 427 kts | 346° |
| 2026-05-04 18:06 | 48.55049 | 6.41791 | 29984 ft | 427 kts | 347° |
| 2026-05-04 18:06 | 48.60911 | 6.40361 | 29985 ft | 427 kts | 346° |
| 2026-05-04 18:07 | 48.66818 | 6.39285 | 29982 ft | 431 kts | 357° |
| 2026-05-04 18:07 | 48.72824 | 6.39844 | 29985 ft | 433 kts | 1° |
| 2026-05-04 18:08 | 48.78826 | 6.40455 | 29986 ft | 432 kts | 0° |
| 2026-05-04 18:08 | 48.84828 | 6.41052 | 29984 ft | 432 kts | 0° |
| 2026-05-04 18:09 | 48.96838 | 6.42272 | 29984 ft | 432 kts | 0° |
| 2026-05-04 18:10 | 49.02846 | 6.42891 | 29986 ft | 432 kts | 0° |
| 2026-05-04 18:10 | 49.08807 | 6.43492 | 29986 ft | 431 kts | 358° |
| 2026-05-04 18:11 | 49.14682 | 6.42433 | 29979 ft | 423 kts | 341° |
| 2026-05-04 18:11 | 49.20359 | 6.40064 | 29971 ft | 423 kts | 341° |
| 2026-05-04 18:12 | 49.26044 | 6.37728 | 29965 ft | 423 kts | 341° |
| 2026-05-04 18:12 | 49.31739 | 6.35403 | 29959 ft | 424 kts | 341° |
| 2026-05-04 18:13 | 49.37446 | 6.33057 | 29957 ft | 424 kts | 341° |
| 2026-05-04 18:14 | 49.45994 | 6.29516 | 29957 ft | 424 kts | 341° |
| 2026-05-04 18:14 | 49.51657 | 6.27162 | 29955 ft | 424 kts | 341° |
| 2026-05-04 18:15 | 49.63088 | 6.22484 | 29954 ft | 425 kts | 341° |
| 2026-05-04 18:16 | 49.68815 | 6.20143 | 29955 ft | 425 kts | 341° |
| 2026-05-04 18:16 | 49.74535 | 6.17787 | 29955 ft | 425 kts | 341° |
| 2026-05-04 18:17 | 49.83089 | 6.14236 | 29959 ft | 426 kts | 341° |
| 2026-05-04 18:18 | 49.91731 | 6.10864 | 29961 ft | 427 kts | 343° |
| 2026-05-04 18:18 | 49.97559 | 6.08894 | 29965 ft | 428 kts | 344° |
| 2026-05-04 18:19 | 50.06283 | 6.05904 | 29968 ft | 428 kts | 343° |
| 2026-05-04 18:19 | 50.12048 | 6.03851 | 29965 ft | 427 kts | 343° |
| 2026-05-04 18:20 | 50.17846 | 6.01784 | 29966 ft | 428 kts | 343° |
| 2026-05-04 18:20 | 50.23649 | 5.99715 | 29967 ft | 427 kts | 343° |
| 2026-05-04 18:21 | 50.29451 | 5.97638 | 29967 ft | 428 kts | 343° |
| 2026-05-04 18:21 | 50.35252 | 5.95567 | 29951 ft | 428 kts | 343° |
| 2026-05-04 18:22 | 50.38149 | 5.94532 | 29700 ft | 428 kts | 343° |
| 2026-05-04 18:22 | 50.41060 | 5.93491 | 29445 ft | 427 kts | 343° |
| 2026-05-04 18:22 | 50.43945 | 5.92456 | 29000 ft | 424 kts | 343° |
| 2026-05-04 18:22 | 50.46814 | 5.91422 | 28457 ft | 423 kts | 343° |
| 2026-05-04 18:23 | 50.49674 | 5.90393 | 27939 ft | 421 kts | 343° |
| 2026-05-04 18:23 | 50.51568 | 5.89713 | 27606 ft | 419 kts | 343° |
| 2026-05-04 18:23 | 50.54404 | 5.88691 | 27103 ft | 417 kts | 343° |
| 2026-05-04 18:23 | 50.57236 | 5.87678 | 26614 ft | 417 kts | 342° |
| 2026-05-04 18:24 | 50.60035 | 5.86520 | 26128 ft | 412 kts | 336° |
| 2026-05-04 18:24 | 50.62593 | 5.84604 | 25670 ft | 403 kts | 324° |
| 2026-05-04 18:24 | 50.64813 | 5.81989 | 25225 ft | 394 kts | 313° |
| 2026-05-04 18:24 | 50.66631 | 5.78835 | 24775 ft | 385 kts | 302° |
| 2026-05-04 18:25 | 50.68013 | 5.75283 | 24313 ft | 376 kts | 292° |
| 2026-05-04 18:25 | 50.69172 | 5.71663 | 23876 ft | 373 kts | 292° |
| 2026-05-04 18:25 | 50.70340 | 5.68027 | 23424 ft | 370 kts | 293° |
| 2026-05-04 18:25 | 50.71498 | 5.64427 | 22974 ft | 367 kts | 293° |
| 2026-05-04 18:26 | 50.72649 | 5.60844 | 22522 ft | 364 kts | 293° |
| 2026-05-04 18:26 | 50.73791 | 5.57290 | 22072 ft | 362 kts | 293° |
| 2026-05-04 18:26 | 50.74923 | 5.53757 | 21626 ft | 359 kts | 293° |
| 2026-05-04 18:26 | 50.76046 | 5.50238 | 21165 ft | 357 kts | 293° |
| 2026-05-04 18:27 | 50.77157 | 5.46746 | 20719 ft | 354 kts | 293° |
| 2026-05-04 18:27 | 50.78259 | 5.43281 | 20269 ft | 352 kts | 293° |
| 2026-05-04 18:27 | 50.79353 | 5.39832 | 19818 ft | 350 kts | 294° |
| 2026-05-04 18:27 | 50.80428 | 5.36438 | 19371 ft | 349 kts | 294° |
| 2026-05-04 18:28 | 50.81505 | 5.33004 | 18915 ft | 347 kts | 293° |
| 2026-05-04 18:28 | 50.82578 | 5.29593 | 18507 ft | 345 kts | 294° |
| 2026-05-04 18:28 | 50.83645 | 5.26224 | 18222 ft | 339 kts | 294° |
| 2026-05-04 18:28 | 50.84698 | 5.22891 | 17798 ft | 337 kts | 294° |
| 2026-05-04 18:29 | 50.85743 | 5.19581 | 17364 ft | 335 kts | 294° |
| 2026-05-04 18:29 | 50.86719 | 5.16255 | 16930 ft | 331 kts | 288° |
| 2026-05-04 18:29 | 50.87273 | 5.12759 | 16529 ft | 326 kts | 276° |
| 2026-05-04 18:29 | 50.87367 | 5.09238 | 16122 ft | 322 kts | 264° |
| 2026-05-04 18:30 | 50.86897 | 5.02220 | 15325 ft | 318 kts | 262° |
| 2026-05-04 18:30 | 50.86660 | 4.98741 | 14929 ft | 317 kts | 262° |
| 2026-05-04 18:30 | 50.86425 | 4.95281 | 14533 ft | 315 kts | 262° |
| 2026-05-04 18:31 | 50.86186 | 4.91834 | 14127 ft | 315 kts | 262° |
| 2026-05-04 18:31 | 50.85938 | 4.88392 | 13742 ft | 313 kts | 263° |
| 2026-05-04 18:31 | 50.85702 | 4.85001 | 13347 ft | 310 kts | 261° |
| 2026-05-04 18:31 | 50.85468 | 4.81665 | 12959 ft | 308 kts | 262° |
| 2026-05-04 18:32 | 50.85233 | 4.78306 | 12562 ft | 306 kts | 262° |
| 2026-05-04 18:32 | 50.85000 | 4.74961 | 12169 ft | 305 kts | 263° |
| 2026-05-04 18:32 | 50.84766 | 4.71635 | 11763 ft | 303 kts | 263° |
| 2026-05-04 18:32 | 50.84530 | 4.68322 | 11359 ft | 302 kts | 262° |
| 2026-05-04 18:33 | 50.84297 | 4.65023 | 10955 ft | 301 kts | 262° |
| 2026-05-04 18:33 | 50.84061 | 4.61746 | 10539 ft | 299 kts | 262° |
| 2026-05-04 18:33 | 50.83823 | 4.58484 | 10130 ft | 297 kts | 262° |
| 2026-05-04 18:33 | 50.83591 | 4.55309 | 9988 ft | 280 kts | 262° |
| 2026-05-04 18:34 | 50.83379 | 4.52359 | 9820 ft | 263 kts | 262° |
| 2026-05-04 18:34 | 50.83173 | 4.49516 | 9417 ft | 255 kts | 261° |
| 2026-05-04 18:34 | 50.82973 | 4.46775 | 9054 ft | 246 kts | 262° |
| 2026-05-04 18:34 | 50.82779 | 4.44117 | 8705 ft | 239 kts | 262° |
| 2026-05-04 18:35 | 50.82593 | 4.41559 | 8376 ft | 230 kts | 261° |
| 2026-05-04 18:35 | 50.82410 | 4.39078 | 8063 ft | 230 kts | 262° |
| 2026-05-04 18:35 | 50.82220 | 4.36555 | 7729 ft | 231 kts | 262° |
| 2026-05-04 18:35 | 50.82031 | 4.34033 | 7401 ft | 231 kts | 262° |
| 2026-05-04 18:36 | 50.81841 | 4.31513 | 7076 ft | 231 kts | 263° |
| 2026-05-04 18:36 | 50.81662 | 4.29000 | 6748 ft | 230 kts | 263° |
| 2026-05-04 18:36 | 50.81473 | 4.26487 | 6412 ft | 230 kts | 261° |
| 2026-05-04 18:36 | 50.81283 | 4.23973 | 6092 ft | 229 kts | 262° |
| 2026-05-04 18:37 | 50.81093 | 4.21464 | 5766 ft | 229 kts | 261° |
| 2026-05-04 18:37 | 50.80902 | 4.18969 | 5443 ft | 229 kts | 262° |
| 2026-05-04 18:37 | 50.80711 | 4.16473 | 5118 ft | 228 kts | 262° |
| 2026-05-04 18:37 | 50.80521 | 4.13989 | 4801 ft | 228 kts | 262° |
| 2026-05-04 18:38 | 50.80367 | 4.11555 | 4511 ft | 221 kts | 269° |
| 2026-05-04 18:38 | 50.80888 | 4.09466 | 4464 ft | 199 kts | 314° |
| 2026-05-04 18:38 | 50.82070 | 4.08755 | 4375 ft | 176 kts | 6° |
| 2026-05-04 18:38 | 50.83012 | 4.09689 | 4142 ft | 157 kts | 62° |
| 2026-05-04 18:39 | 50.83074 | 4.11328 | 3824 ft | 149 kts | 102° |
| 2026-05-04 18:39 | 50.82899 | 4.12925 | 3473 ft | 146 kts | 101° |
| 2026-05-04 18:39 | 50.82727 | 4.14503 | 3096 ft | 145 kts | 101° |
| 2026-05-04 18:39 | 50.82559 | 4.16058 | 2675 ft | 145 kts | 101° |
| 2026-05-04 18:40 | 50.82392 | 4.17608 | 2371 ft | 142 kts | 100° |
| 2026-05-04 18:40 | 50.82329 | 4.19152 | 2091 ft | 140 kts | 83° |
| 2026-05-04 18:40 | 50.82693 | 4.20567 | 1818 ft | 140 kts | 59° |
| 2026-05-04 18:40 | 50.83124 | 4.21932 | 1541 ft | 137 kts | 67° |
| 2026-05-04 18:41 | 50.83509 | 4.23307 | 1266 ft | 136 kts | 68° |
| 2026-05-04 18:41 | 50.83889 | 4.24675 | 993 ft | 135 kts | 68° |
| 2026-05-04 18:41 | 50.84266 | 4.26010 | 768 ft | 131 kts | 68° |
| 2026-05-04 18:41 | 50.84640 | 4.27317 | 707 ft | 130 kts | 67° |
| 2026-05-04 18:42 | 50.85016 | 4.28628 | 694 ft | 131 kts | 68° |
| 2026-05-04 18:42 | 50.85388 | 4.29924 | 595 ft | 131 kts | 67° |
| 2026-05-04 18:42 | 50.85766 | 4.31239 | 680 ft | 136 kts | 67° |
| 2026-05-04 18:42 | 50.86161 | 4.32616 | 704 ft | 138 kts | 67° |
| 2026-05-04 18:43 | 50.86559 | 4.33999 | 698 ft | 138 kts | 67° |
| 2026-05-04 18:43 | 50.86956 | 4.35381 | 714 ft | 138 kts | 66° |
| 2026-05-04 18:43 | 50.87355 | 4.36769 | 700 ft | 138 kts | 68° |
| 2026-05-04 18:43 | 50.87755 | 4.38154 | 702 ft | 138 kts | 66° |
| 2026-05-04 18:44 | 50.88157 | 4.39542 | 712 ft | 139 kts | 66° |
| 2026-05-04 18:44 | 50.88423 | 4.40462 | 710 ft | 139 kts | 66° |
| 2026-05-04 18:44 | 50.88954 | 4.42305 | 671 ft | 137 kts | 66° |
| 2026-05-04 18:44 | 50.89329 | 4.43659 | 557 ft | 132 kts | 65° |
| 2026-05-04 18:45 | 50.89700 | 4.44988 | 384 ft | 132 kts | 55° |
| 2026-05-04 18:45 | 50.90113 | 4.46277 | 199 ft | 130 kts | 69° |
| 2026-05-04 18:45 | 50.90437 | 4.47423 | 120 ft | 90 kts | 67° |
| 2026-05-04 18:45 | 50.90585 | 4.47980 | 123 ft | 40 kts | 65° |
| 2026-05-04 18:46 | 50.90650 | 4.48265 | 121 ft | 22 kts | 89° |
| 2026-05-04 18:46 | 50.90624 | 4.48391 | 125 ft | 0 kts | 118° |
| 2026-05-04 18:46 | 50.90622 | 4.48396 | 121 ft | 2 kts | 118° |
| 2026-05-04 18:47 | 50.90607 | 4.48439 | 120 ft | 6 kts | 119° |
| 2026-05-04 18:47 | 50.90584 | 4.48546 | 121 ft | 15 kts | 93° |
| 2026-05-04 18:47 | 50.90625 | 4.48733 | 121 ft | 20 kts | 65° |
| 2026-05-04 18:47 | 50.90682 | 4.48929 | 120 ft | 18 kts | 65° |
| 2026-05-04 18:48 | 50.90699 | 4.49075 | 117 ft | 14 kts | 111° |
| 2026-05-04 18:48 | 50.90617 | 4.49156 | 120 ft | 14 kts | 156° |
| 2026-05-04 18:48 | 50.90527 | 4.49220 | 124 ft | 15 kts | 155° |
| 2026-05-04 18:48 | 50.90445 | 4.49280 | 123 ft | 8 kts | 156° |
| 2026-05-04 18:49 | 50.90393 | 4.49271 | 123 ft | 8 kts | 216° |
| 2026-05-04 18:49 | 50.90365 | 4.49194 | 124 ft | 9 kts | 244° |
| 2026-05-04 18:49 | 50.90336 | 4.49095 | 122 ft | 11 kts | 245° |
| 2026-05-04 18:49 | 50.90302 | 4.48975 | 125 ft | 13 kts | 245° |
| 2026-05-04 18:50 | 50.90263 | 4.48840 | 125 ft | 14 kts | 245° |
| 2026-05-04 18:50 | 50.90236 | 4.48748 | 124 ft | 7 kts | 245° |
| 2026-05-04 18:50 | 50.90229 | 4.48700 | 124 ft | 5 kts | 275° |
| 2026-05-04 18:50 | 50.90263 | 4.48654 | 122 ft | 8 kts | 333° |
| 2026-05-04 18:51 | 50.90283 | 4.48638 | 121 ft | 0 kts | 334° |
| 2026-05-04 18:51 | 50.90286 | 4.48636 | 121 ft | 0 kts | 334° |